createdAt,value
2023-03-19T00:00:34.895Z,7.695312
2023-03-19T00:01:46.474Z,7.655029
2023-03-19T00:02:54.467Z,7.584534
2023-03-19T00:04:03.914Z,7.584534
2023-03-19T00:05:12.588Z,7.574463
2023-03-19T00:06:22.322Z,7.54425
2023-03-19T00:07:30.977Z,7.574463
2023-03-19T00:08:40.699Z,7.604675
2023-03-19T00:09:50.376Z,7.604675
2023-03-19T00:10:59.049Z,7.655029
2023-03-19T00:12:08.743Z,7.695312
2023-03-19T00:13:18.433Z,7.695312
2023-03-19T00:14:28.109Z,7.745667
2023-03-19T00:15:37.848Z,7.755737
2023-03-19T00:16:46.615Z,7.745667
2023-03-19T00:17:55.221Z,7.725525
2023-03-19T00:19:04.917Z,7.695312
2023-03-19T00:20:12.679Z,7.685242
2023-03-19T00:21:24.909Z,7.715454
2023-03-19T00:22:32.030Z,7.685242
2023-03-19T00:23:40.759Z,7.685242
2023-03-19T00:24:50.493Z,7.634888
2023-03-19T00:26:00.195Z,7.584534
2023-03-19T00:27:09.884Z,7.54425
2023-03-19T00:28:19.582Z,7.54425
2023-03-19T00:29:28.272Z,7.53418
2023-03-19T00:30:38.031Z,7.514038
2023-03-19T00:31:47.633Z,7.433472
2023-03-19T00:32:56.409Z,7.403259
2023-03-19T00:34:06.038Z,7.352905
2023-03-19T00:35:14.714Z,7.312622
2023-03-19T00:36:24.400Z,7.28241
2023-03-19T00:37:34.104Z,7.28241
2023-03-19T00:38:43.828Z,7.29248
2023-03-19T00:39:53.535Z,7.29248
2023-03-19T00:41:03.319Z,7.312622
2023-03-19T00:42:12.015Z,7.312622
2023-03-19T00:43:21.917Z,7.29248
2023-03-19T00:44:31.600Z,7.29248
2023-03-19T00:45:40.296Z,7.29248
2023-03-19T00:46:49.994Z,7.28241
2023-03-19T00:47:58.816Z,7.242126
2023-03-19T00:49:08.512Z,7.181702
2023-03-19T00:50:18.191Z,7.151489
2023-03-19T00:51:26.891Z,7.151489
2023-03-19T00:52:36.585Z,7.131348
2023-03-19T00:53:44.288Z,7.131348
2023-03-19T00:54:54.009Z,7.131348
2023-03-19T00:56:03.786Z,7.111206
2023-03-19T00:57:12.350Z,7.111206
2023-03-19T00:58:22.131Z,7.070923
2023-03-19T00:59:30.799Z,7.070923
2023-03-19T01:00:39.472Z,7.060852
2023-03-19T01:01:49.219Z,7.070923
2023-03-19T01:02:57.868Z,7.070923
2023-03-19T01:04:06.589Z,7.060852
2023-03-19T01:05:16.265Z,7.020569
2023-03-19T01:06:23.972Z,7.000427
2023-03-19T01:07:33.650Z,6.970215
2023-03-19T01:08:42.352Z,6.950073
2023-03-19T01:09:49.016Z,6.869507
2023-03-19T01:10:58.674Z,6.809082
2023-03-19T01:12:08.365Z,6.768799
2023-03-19T01:13:18.061Z,6.748657
2023-03-19T01:14:27.723Z,6.748657
2023-03-19T01:15:35.393Z,6.738586
2023-03-19T01:16:45.048Z,6.748657
2023-03-19T01:17:53.727Z,6.748657
2023-03-19T01:19:02.485Z,6.748657
2023-03-19T01:20:12.157Z,6.748657
2023-03-19T01:21:19.850Z,6.748657
2023-03-19T01:22:28.501Z,6.748657
2023-03-19T01:23:38.185Z,6.77887
2023-03-19T01:24:45.845Z,6.77887
2023-03-19T01:25:55.523Z,6.78894
2023-03-19T01:27:04.172Z,6.809082
2023-03-19T01:28:13.906Z,6.819153
2023-03-19T01:29:23.547Z,6.849365
2023-03-19T01:30:32.527Z,6.869507
2023-03-19T01:31:41.876Z,6.869507
2023-03-19T01:32:51.641Z,6.879578
2023-03-19T01:34:00.269Z,6.869507
2023-03-19T01:35:09.920Z,6.869507
2023-03-19T01:36:18.584Z,6.869507
2023-03-19T01:37:28.271Z,6.839294
2023-03-19T01:38:37.955Z,6.839294
2023-03-19T01:39:46.616Z,6.819153
2023-03-19T01:40:56.262Z,6.78894
2023-03-19T01:42:05.956Z,6.78894
2023-03-19T01:43:15.670Z,6.77887
2023-03-19T01:44:25.378Z,6.768799
2023-03-19T01:45:35.052Z,6.768799
2023-03-19T01:46:44.752Z,6.77887
2023-03-19T01:47:54.402Z,6.77887
2023-03-19T01:49:03.116Z,6.78894
2023-03-19T01:50:12.791Z,6.809082
2023-03-19T01:51:22.485Z,6.77887
2023-03-19T01:52:31.173Z,6.77887
2023-03-19T01:53:40.887Z,6.768799
2023-03-19T01:54:50.578Z,6.748657
2023-03-19T01:55:59.279Z,6.718445
2023-03-19T01:57:08.944Z,6.688232
2023-03-19T01:58:17.693Z,6.688232
2023-03-19T01:59:27.422Z,6.668091
2023-03-19T02:00:37.101Z,6.65802
2023-03-19T02:01:46.809Z,6.668091
2023-03-19T02:02:56.507Z,6.668091
2023-03-19T02:04:05.299Z,6.637878
2023-03-19T02:05:14.951Z,6.617737
2023-03-19T02:06:24.653Z,6.587524
2023-03-19T02:07:33.349Z,6.567383
2023-03-19T02:08:43.055Z,6.557312
2023-03-19T02:09:51.744Z,6.506958
2023-03-19T02:11:00.502Z,6.486816
2023-03-19T02:12:10.148Z,6.456604
2023-03-19T02:13:17.944Z,6.476746
2023-03-19T02:14:27.559Z,6.476746
2023-03-19T02:15:36.308Z,6.506958
2023-03-19T02:16:45.015Z,6.53717
2023-03-19T02:17:54.706Z,6.53717
2023-03-19T02:19:03.417Z,6.587524
2023-03-19T02:20:13.098Z,6.53717
2023-03-19T02:21:22.787Z,6.53717
2023-03-19T02:22:31.468Z,6.567383
2023-03-19T02:23:41.208Z,6.517029
2023-03-19T02:24:49.920Z,6.506958
2023-03-19T02:25:59.602Z,6.506958
2023-03-19T02:27:09.330Z,6.486816
2023-03-19T02:28:17.983Z,6.476746
2023-03-19T02:29:26.695Z,6.416321
2023-03-19T02:30:36.398Z,6.376038
2023-03-19T02:31:44.158Z,6.325684
2023-03-19T02:32:53.828Z,6.27533
2023-03-19T02:34:02.490Z,6.255188
2023-03-19T02:35:11.211Z,6.255188
2023-03-19T02:36:20.914Z,6.255188
2023-03-19T02:37:31.961Z,6.235046
2023-03-19T02:38:39.272Z,6.224976
2023-03-19T02:39:48.989Z,6.194763
2023-03-19T02:40:58.699Z,6.164551
2023-03-19T02:42:08.376Z,6.164551
2023-03-19T02:43:18.108Z,6.124268
2023-03-19T02:44:25.812Z,6.094055
2023-03-19T02:45:35.543Z,6.083984
2023-03-19T02:46:44.420Z,6.083984
2023-03-19T02:47:53.940Z,6.083984
2023-03-19T02:49:03.650Z,6.094055
2023-03-19T02:50:12.387Z,6.114197
2023-03-19T02:51:22.077Z,6.094055
2023-03-19T02:52:30.784Z,6.094055
2023-03-19T02:53:38.630Z,6.083984
2023-03-19T02:54:48.325Z,6.083984
2023-03-19T02:55:57.019Z,6.094055
2023-03-19T02:57:06.753Z,6.073914
2023-03-19T02:58:16.509Z,6.053772
2023-03-19T02:59:25.228Z,6.053772
2023-03-19T03:00:35.311Z,6.043701
2023-03-19T03:01:43.687Z,6.043701
2023-03-19T03:02:52.289Z,6.02356
2023-03-19T03:04:02.032Z,6.02356
2023-03-19T03:05:11.733Z,6.043701
2023-03-19T03:06:20.417Z,6.043701
2023-03-19T03:07:29.121Z,6.043701
2023-03-19T03:08:37.871Z,6.043701
2023-03-19T03:09:47.597Z,6.043701
2023-03-19T03:10:56.270Z,6.043701
2023-03-19T03:12:04.981Z,6.043701
2023-03-19T03:13:14.722Z,6.013489
2023-03-19T03:14:22.389Z,6.02356
2023-03-19T03:15:32.148Z,6.043701
2023-03-19T03:16:41.932Z,6.094055
2023-03-19T03:17:50.558Z,6.144409
2023-03-19T03:19:00.369Z,6.235046
2023-03-19T03:20:10.092Z,6.265259
2023-03-19T03:21:19.780Z,6.345825
2023-03-19T03:22:29.472Z,6.40625
2023-03-19T03:23:37.200Z,6.446533
2023-03-19T03:24:46.894Z,6.476746
2023-03-19T03:25:56.582Z,6.557312
2023-03-19T03:27:04.267Z,6.627808
2023-03-19T03:28:13.958Z,6.65802
2023-03-19T03:29:22.704Z,6.698303
2023-03-19T03:30:32.678Z,6.748657
2023-03-19T03:31:42.217Z,6.77887
2023-03-19T03:32:49.794Z,6.78894
2023-03-19T03:33:58.494Z,6.78894
2023-03-19T03:35:08.212Z,6.809082
2023-03-19T03:36:18.043Z,6.78894
2023-03-19T03:37:27.629Z,6.77887
2023-03-19T03:38:36.345Z,6.768799
2023-03-19T03:39:45.044Z,6.77887
2023-03-19T03:40:54.784Z,6.768799
2023-03-19T03:42:03.498Z,6.738586
2023-03-19T03:43:12.177Z,6.718445
2023-03-19T03:44:21.906Z,6.668091
2023-03-19T03:45:29.677Z,6.65802
2023-03-19T03:46:39.295Z,6.65802
2023-03-19T03:47:48.977Z,6.65802
2023-03-19T03:48:57.682Z,6.65802
2023-03-19T03:50:07.377Z,6.637878
2023-03-19T03:51:16.093Z,6.617737
2023-03-19T03:52:25.922Z,6.617737
2023-03-19T03:53:35.570Z,6.627808
2023-03-19T03:54:44.309Z,6.637878
2023-03-19T03:55:54.001Z,6.65802
2023-03-19T03:57:03.567Z,6.668091
2023-03-19T03:58:11.394Z,6.738586
2023-03-19T03:59:21.124Z,6.748657
2023-03-19T04:00:29.847Z,6.78894
2023-03-19T04:01:39.520Z,6.809082
2023-03-19T04:02:50.321Z,6.869507
2023-03-19T04:03:59.040Z,6.919861
2023-03-19T04:05:08.750Z,6.970215
2023-03-19T04:06:16.455Z,6.970215
2023-03-19T04:07:26.145Z,6.990356
2023-03-19T04:08:34.864Z,7.020569
2023-03-19T04:09:43.580Z,7.03064
2023-03-19T04:10:53.268Z,7.070923
2023-03-19T04:12:02.076Z,7.111206
2023-03-19T04:13:11.637Z,7.111206
2023-03-19T04:14:21.359Z,7.131348
2023-03-19T04:15:29.074Z,7.131348
2023-03-19T04:16:38.858Z,7.141418
2023-03-19T04:17:48.521Z,7.141418
2023-03-19T04:18:58.226Z,7.141418
2023-03-19T04:20:08.001Z,7.141418
2023-03-19T04:21:16.705Z,7.141418
2023-03-19T04:22:26.417Z,7.131348
2023-03-19T04:23:36.123Z,7.131348
2023-03-19T04:24:43.922Z,7.131348
2023-03-19T04:25:53.615Z,7.131348
2023-03-19T04:27:02.311Z,7.111206
2023-03-19T04:28:10.002Z,7.101135
2023-03-19T04:29:19.749Z,7.070923
2023-03-19T04:30:28.500Z,7.070923
2023-03-19T04:31:38.213Z,7.070923
2023-03-19T04:32:47.945Z,7.050781
2023-03-19T04:33:56.594Z,7.050781
2023-03-19T04:35:06.348Z,7.060852
2023-03-19T04:36:15.053Z,7.070923
2023-03-19T04:37:23.750Z,7.070923
2023-03-19T04:38:33.439Z,7.060852
2023-03-19T04:39:41.133Z,7.101135
2023-03-19T04:40:50.889Z,7.070923
2023-03-19T04:42:00.539Z,7.101135
2023-03-19T04:43:09.242Z,7.101135
2023-03-19T04:44:18.925Z,7.070923
2023-03-19T04:45:27.651Z,7.111206
2023-03-19T04:46:35.359Z,7.101135
2023-03-19T04:47:45.040Z,7.070923
2023-03-19T04:48:53.783Z,7.060852
2023-03-19T04:50:03.537Z,7.050781
2023-03-19T04:51:13.227Z,7.050781
2023-03-19T04:52:21.912Z,7.060852
2023-03-19T04:53:31.628Z,7.060852
2023-03-19T04:54:40.344Z,7.050781
2023-03-19T04:55:49.044Z,7.060852
2023-03-19T04:56:58.760Z,7.070923
2023-03-19T04:58:07.432Z,7.070923
2023-03-19T04:59:17.119Z,7.070923
2023-03-19T05:00:26.931Z,7.070923
2023-03-19T05:01:35.643Z,7.060852
2023-03-19T05:02:45.328Z,7.101135
2023-03-19T05:03:54.029Z,7.101135
2023-03-19T05:05:01.753Z,7.101135
2023-03-19T05:06:11.441Z,7.101135
2023-03-19T05:07:19.138Z,7.101135
2023-03-19T05:08:27.819Z,7.101135
2023-03-19T05:09:37.518Z,7.111206
2023-03-19T05:10:46.223Z,7.101135
2023-03-19T05:11:55.938Z,7.131348
2023-03-19T05:13:05.671Z,7.131348
2023-03-19T05:14:15.349Z,7.111206
2023-03-19T05:15:24.062Z,7.111206
2023-03-19T05:16:32.747Z,7.141418
2023-03-19T05:17:42.426Z,7.141418
2023-03-19T05:18:52.126Z,7.171631
2023-03-19T05:20:00.845Z,7.201843
2023-03-19T05:21:10.577Z,7.232056
2023-03-19T05:22:19.257Z,7.252197
2023-03-19T05:23:26.966Z,7.28241
2023-03-19T05:24:36.651Z,7.322693
2023-03-19T05:25:44.387Z,7.352905
2023-03-19T05:26:54.084Z,7.383118
2023-03-19T05:28:03.802Z,7.403259
2023-03-19T05:29:13.503Z,7.433472
2023-03-19T05:30:23.221Z,7.473755
2023-03-19T05:31:32.942Z,7.514038
2023-03-19T05:32:41.636Z,7.53418
2023-03-19T05:33:51.298Z,7.564392
2023-03-19T05:35:00.008Z,7.574463
2023-03-19T05:36:08.750Z,7.604675
2023-03-19T05:37:18.452Z,7.655029
2023-03-19T05:38:27.121Z,7.6651
2023-03-19T05:39:36.811Z,7.685242
2023-03-19T05:40:45.530Z,7.725525
2023-03-19T05:41:54.259Z,7.765808
2023-03-19T05:43:04.002Z,7.796021
2023-03-19T05:44:12.714Z,7.846375
2023-03-19T05:45:22.536Z,7.876587
2023-03-19T05:46:32.194Z,7.906799
2023-03-19T05:47:41.850Z,7.947083
2023-03-19T05:48:51.555Z,7.997437
2023-03-19T05:50:01.231Z,8.007507
2023-03-19T05:51:09.970Z,8.078003
2023-03-19T05:52:19.669Z,8.098145
2023-03-19T05:53:28.349Z,8.148499
2023-03-19T05:54:38.041Z,8.188782
2023-03-19T05:55:47.752Z,8.229065
2023-03-19T05:56:54.445Z,8.259277
2023-03-19T05:58:05.189Z,8.299561
2023-03-19T05:59:12.885Z,8.329773
2023-03-19T06:00:22.601Z,8.370056
2023-03-19T06:01:32.334Z,8.42041
2023-03-19T06:02:41.017Z,8.450623
2023-03-19T06:03:50.690Z,8.490906
2023-03-19T06:05:00.367Z,8.511047
2023-03-19T06:06:09.096Z,8.531189
2023-03-19T06:07:18.881Z,8.551331
2023-03-19T06:08:28.579Z,8.631897
2023-03-19T06:09:38.277Z,8.662109
2023-03-19T06:10:47.011Z,8.692322
2023-03-19T06:11:54.707Z,8.732605
2023-03-19T06:13:04.392Z,8.762817
2023-03-19T06:14:13.081Z,8.79303
2023-03-19T06:15:22.885Z,8.843384
2023-03-19T06:16:32.648Z,8.873596
2023-03-19T06:17:41.347Z,8.873596
2023-03-19T06:18:50.989Z,8.92395
2023-03-19T06:19:59.681Z,8.974304
2023-03-19T06:21:08.445Z,9.024658
2023-03-19T06:22:18.162Z,9.0448
2023-03-19T06:23:25.832Z,9.105225
2023-03-19T06:24:35.557Z,9.125366
2023-03-19T06:25:45.305Z,9.17572
2023-03-19T06:26:55.015Z,9.205933
2023-03-19T06:28:04.695Z,9.256287
2023-03-19T06:29:13.406Z,9.286499
2023-03-19T06:30:22.203Z,9.367065
2023-03-19T06:31:32.041Z,9.397278
2023-03-19T06:32:40.706Z,9.467773
2023-03-19T06:33:50.449Z,9.508057
2023-03-19T06:35:00.171Z,9.558411
2023-03-19T06:36:10.295Z,9.618835
2023-03-19T06:37:20.020Z,9.659119
2023-03-19T06:38:30.775Z,9.689331
2023-03-19T06:39:39.490Z,9.769897
2023-03-19T06:40:49.203Z,9.790039
2023-03-19T06:41:57.973Z,9.80011
2023-03-19T06:43:06.656Z,9.840393
2023-03-19T06:44:15.374Z,9.870605
2023-03-19T06:45:24.093Z,9.920959
2023-03-19T06:46:33.867Z,9.971313
2023-03-19T06:47:43.566Z,9.981384
2023-03-19T06:48:54.281Z,9.991455
2023-03-19T06:50:03.930Z,10.011597
2023-03-19T06:51:12.642Z,10.041809
2023-03-19T06:52:22.395Z,10.092163
2023-03-19T06:53:32.086Z,10.122375
2023-03-19T06:54:39.772Z,10.102234
2023-03-19T06:55:49.472Z,10.162659
2023-03-19T06:56:58.190Z,10.192871
2023-03-19T06:58:06.922Z,10.202942
2023-03-19T06:59:16.590Z,10.202942
2023-03-19T07:00:25.301Z,10.223083
2023-03-19T07:01:35.001Z,10.253296
2023-03-19T07:02:44.699Z,10.263367
2023-03-19T07:03:53.443Z,10.263367
2023-03-19T07:05:03.123Z,10.313721
2023-03-19T07:06:12.870Z,10.343933
2023-03-19T07:07:21.648Z,10.313721
2023-03-19T07:08:31.341Z,10.313721
2023-03-19T07:09:39.032Z,10.333862
2023-03-19T07:10:47.758Z,10.343933
2023-03-19T07:11:57.454Z,10.374146
2023-03-19T07:13:06.169Z,10.374146
2023-03-19T07:14:15.859Z,10.374146
2023-03-19T07:15:24.542Z,10.404358
2023-03-19T07:16:32.326Z,10.414429
2023-03-19T07:17:42.002Z,10.414429
2023-03-19T07:18:50.787Z,10.444641
2023-03-19T07:20:00.479Z,10.414429
2023-03-19T07:21:10.237Z,10.4245
2023-03-19T07:22:18.911Z,10.464783
2023-03-19T07:23:28.592Z,10.494995
2023-03-19T07:24:38.276Z,10.525208
2023-03-19T07:25:45.981Z,10.505066
2023-03-19T07:26:55.722Z,10.535278
2023-03-19T07:28:03.374Z,10.565491
2023-03-19T07:29:13.062Z,10.585632
2023-03-19T07:30:22.786Z,10.585632
2023-03-19T07:31:30.520Z,10.605774
2023-03-19T07:32:40.254Z,10.68634
2023-03-19T07:33:48.945Z,10.706482
2023-03-19T07:34:58.646Z,10.736694
2023-03-19T07:36:08.548Z,10.736694
2023-03-19T07:37:17.366Z,10.756836
2023-03-19T07:38:27.001Z,10.776978
2023-03-19T07:39:36.687Z,10.837402
2023-03-19T07:40:51.491Z,10.817261
2023-03-19T07:41:55.104Z,10.887756
2023-03-19T07:43:03.777Z,10.857544
2023-03-19T07:44:12.484Z,10.817261
2023-03-19T07:45:23.209Z,10.817261
2023-03-19T07:46:31.975Z,10.756836
2023-03-19T07:47:40.635Z,10.776978
2023-03-19T07:48:51.298Z,10.776978
2023-03-19T07:49:59.999Z,10.756836
2023-03-19T07:51:09.710Z,10.746765
2023-03-19T07:52:19.476Z,10.746765
2023-03-19T07:53:29.194Z,10.787048
2023-03-19T07:54:38.927Z,10.787048
2023-03-19T07:55:47.657Z,10.817261
2023-03-19T07:56:57.414Z,10.887756
2023-03-19T07:58:06.123Z,10.917969
2023-03-19T07:59:15.808Z,10.93811
2023-03-19T08:00:25.511Z,10.958252
2023-03-19T08:01:34.270Z,11.018677
2023-03-19T08:02:44.066Z,11.048889
2023-03-19T08:03:52.661Z,11.048889
2023-03-19T08:05:01.323Z,11.048889
2023-03-19T08:06:11.035Z,11.018677
2023-03-19T08:07:19.732Z,11.018677
2023-03-19T08:08:29.472Z,10.998535
2023-03-19T08:09:39.140Z,10.968323
2023-03-19T08:10:48.864Z,10.968323
2023-03-19T08:11:58.569Z,10.958252
2023-03-19T08:13:07.266Z,10.958252
2023-03-19T08:14:14.980Z,10.92804
2023-03-19T08:15:24.705Z,10.92804
2023-03-19T08:16:32.439Z,10.92804
2023-03-19T08:17:41.123Z,10.93811
2023-03-19T08:18:52.409Z,10.93811
2023-03-19T08:20:00.528Z,10.988464
2023-03-19T08:21:10.223Z,10.917969
2023-03-19T08:22:19.895Z,10.958252
2023-03-19T08:23:27.536Z,10.998535
2023-03-19T08:24:37.238Z,10.988464
2023-03-19T08:25:45.889Z,11.018677
2023-03-19T08:26:55.558Z,10.988464
2023-03-19T08:28:05.236Z,10.968323
2023-03-19T08:29:12.893Z,10.917969
2023-03-19T08:30:22.554Z,10.917969
2023-03-19T08:31:31.248Z,10.897827
2023-03-19T08:32:38.895Z,10.917969
2023-03-19T08:33:48.536Z,10.968323
2023-03-19T08:34:57.207Z,10.968323
2023-03-19T08:36:06.948Z,10.968323
2023-03-19T08:37:16.575Z,10.968323
2023-03-19T08:38:26.250Z,10.988464
2023-03-19T08:39:35.953Z,11.038818
2023-03-19T08:40:44.646Z,11.048889
2023-03-19T08:41:54.357Z,11.099243
2023-03-19T08:43:04.054Z,11.069031
2023-03-19T08:44:12.779Z,11.109314
2023-03-19T08:45:21.435Z,11.119385
2023-03-19T08:46:30.179Z,11.169739
2023-03-19T08:47:39.809Z,11.169739
2023-03-19T08:48:49.480Z,11.149597
2023-03-19T08:49:59.141Z,11.139526
2023-03-19T08:51:08.835Z,11.139526
2023-03-19T08:52:18.485Z,11.119385
2023-03-19T08:53:28.147Z,11.149597
2023-03-19T08:54:37.824Z,11.169739
2023-03-19T08:55:47.517Z,11.17981
2023-03-19T08:56:56.204Z,11.18988
2023-03-19T08:58:05.916Z,11.270447
2023-03-19T08:59:14.598Z,11.290588
2023-03-19T09:00:23.297Z,11.361084
2023-03-19T09:01:33.091Z,11.361084
2023-03-19T09:02:41.615Z,11.43158
2023-03-19T09:03:50.279Z,11.502075
2023-03-19T09:04:59.951Z,11.502075
2023-03-19T09:06:09.668Z,11.552429
2023-03-19T09:07:18.307Z,11.602783
2023-03-19T09:08:26.975Z,11.632996
2023-03-19T09:09:36.688Z,11.653137
2023-03-19T09:10:46.393Z,11.703491
2023-03-19T09:11:55.040Z,11.784058
2023-03-19T09:13:04.734Z,11.834412
2023-03-19T09:14:14.415Z,11.81427
2023-03-19T09:15:24.084Z,11.844482
2023-03-19T09:16:33.792Z,11.904907
2023-03-19T09:17:42.440Z,11.93512
2023-03-19T09:18:51.126Z,11.965332
2023-03-19T09:20:00.745Z,12.025757
2023-03-19T09:21:09.440Z,12.086182
2023-03-19T09:22:19.154Z,12.166748
2023-03-19T09:23:28.763Z,12.096252
2023-03-19T09:24:40.533Z,12.19696
2023-03-19T09:25:48.504Z,12.247314
2023-03-19T09:26:57.228Z,12.368164
2023-03-19T09:28:05.914Z,12.489014
2023-03-19T09:29:15.729Z,12.529297
2023-03-19T09:30:24.249Z,12.56958
2023-03-19T09:31:33.959Z,12.680359
2023-03-19T09:32:43.631Z,12.750854
2023-03-19T09:33:52.256Z,12.851562
2023-03-19T09:35:01.911Z,12.9422
2023-03-19T09:36:10.657Z,13.002625
2023-03-19T09:37:19.312Z,13.042908
2023-03-19T09:38:28.977Z,12.9422
2023-03-19T09:39:36.730Z,12.82135
2023-03-19T09:40:45.383Z,12.851562
2023-03-19T09:41:55.080Z,12.901917
2023-03-19T09:43:03.733Z,12.972412
2023-03-19T09:44:13.440Z,13.052979
2023-03-19T09:45:23.165Z,13.113403
2023-03-19T09:46:31.904Z,13.153687
2023-03-19T09:47:40.480Z,13.254395
2023-03-19T09:48:50.209Z,13.314819
2023-03-19T09:49:59.086Z,13.405457
2023-03-19T09:51:08.764Z,13.465881
2023-03-19T09:52:17.425Z,13.465881
2023-03-19T09:53:27.091Z,13.405457
2023-03-19T09:54:35.771Z,13.284607
2023-03-19T09:55:45.457Z,13.284607
2023-03-19T09:56:55.112Z,13.304749
2023-03-19T09:58:03.780Z,13.334961
2023-03-19T09:59:13.436Z,13.405457
2023-03-19T10:00:22.145Z,13.415527
2023-03-19T10:01:30.862Z,13.405457
2023-03-19T10:02:40.461Z,13.516235
2023-03-19T10:03:49.136Z,13.647156
2023-03-19T10:04:58.758Z,13.747864
2023-03-19T10:06:07.437Z,13.717651
2023-03-19T10:07:16.082Z,13.677368
2023-03-19T10:08:25.772Z,13.647156
2023-03-19T10:09:33.435Z,13.717651
2023-03-19T10:10:42.089Z,13.737793
2023-03-19T10:11:51.738Z,13.747864
2023-03-19T10:13:00.466Z,13.717651
2023-03-19T10:14:10.203Z,13.848572
2023-03-19T10:15:19.890Z,13.919067
2023-03-19T10:16:28.586Z,13.94928
2023-03-19T10:17:39.224Z,14.110413
2023-03-19T10:18:48.387Z,14.251404
2023-03-19T10:19:57.585Z,14.281616
2023-03-19T10:21:07.290Z,14.362183
2023-03-19T10:22:15.964Z,14.412537
2023-03-19T10:23:25.641Z,14.442749
2023-03-19T10:24:34.314Z,14.261475
2023-03-19T10:25:41.987Z,14.251404
2023-03-19T10:26:51.683Z,14.180908
2023-03-19T10:27:59.347Z,14.402466
2023-03-19T10:29:07.984Z,14.543457
2023-03-19T10:30:17.676Z,14.483032
2023-03-19T10:31:26.390Z,14.624023
2023-03-19T10:32:36.063Z,14.83551
2023-03-19T10:33:44.805Z,14.95636
2023-03-19T10:34:53.340Z,15.167847
2023-03-19T10:36:03.067Z,15.349121
2023-03-19T10:37:13.735Z,15.369263
2023-03-19T10:38:22.418Z,15.359192
2023-03-19T10:39:32.048Z,15.439758
2023-03-19T10:40:40.702Z,15.439758
2023-03-19T10:41:50.391Z,15.349121
2023-03-19T10:43:00.048Z,15.308838
2023-03-19T10:44:07.704Z,15.369263
2023-03-19T10:45:17.374Z,15.08728
2023-03-19T10:46:27.243Z,15.026855
2023-03-19T10:47:36.744Z,15.057068
2023-03-19T10:48:46.402Z,15.107422
2023-03-19T10:49:55.090Z,15.107422
2023-03-19T10:51:04.758Z,15.177917
2023-03-19T10:52:14.426Z,15.137634
2023-03-19T10:53:24.087Z,15.177917
2023-03-19T10:54:33.738Z,15.20813
2023-03-19T10:55:42.400Z,15.147705
2023-03-19T10:56:51.091Z,15.107422
2023-03-19T10:58:01.750Z,15.08728
2023-03-19T10:59:09.396Z,15.067139
2023-03-19T11:00:19.056Z,15.097351
2023-03-19T11:01:28.840Z,15.218201
2023-03-19T11:02:38.420Z,15.328979
2023-03-19T11:03:48.084Z,15.328979
2023-03-19T11:04:56.744Z,15.248413
2023-03-19T11:06:05.407Z,15.238342
2023-03-19T11:07:15.060Z,15.177917
2023-03-19T11:08:35.120Z,15.278625
2023-03-19T11:09:33.335Z,15.429688
2023-03-19T11:10:42.990Z,15.510254
2023-03-19T11:11:52.666Z,15.550537
2023-03-19T11:13:02.320Z,15.641174
2023-03-19T11:14:09.968Z,15.610962
2023-03-19T11:15:19.635Z,15.419617
2023-03-19T11:16:29.360Z,15.389404
2023-03-19T11:17:37.990Z,15.177917
2023-03-19T11:18:47.643Z,15.20813
2023-03-19T11:19:57.300Z,15.308838
2023-03-19T11:21:06.074Z,15.490112
2023-03-19T11:22:15.696Z,15.520325
2023-03-19T11:23:24.382Z,15.520325
2023-03-19T11:24:33.049Z,15.419617
2023-03-19T11:25:42.710Z,15.248413
2023-03-19T11:26:51.407Z,15.107422
2023-03-19T11:28:01.054Z,15.097351
2023-03-19T11:29:10.756Z,15.067139
2023-03-19T11:30:18.426Z,15.036926
2023-03-19T11:31:28.184Z,15.016785
2023-03-19T11:32:36.889Z,14.996643
2023-03-19T11:33:46.447Z,15.067139
2023-03-19T11:34:56.130Z,15.097351
2023-03-19T11:36:05.902Z,15.107422
2023-03-19T11:37:15.512Z,15.177917
2023-03-19T11:38:25.192Z,15.137634
2023-03-19T11:39:33.827Z,15.187988
2023-03-19T11:40:43.515Z,14.996643
2023-03-19T11:41:52.888Z,15.016785
2023-03-19T11:43:01.568Z,15.026855
2023-03-19T11:44:11.207Z,15.057068
2023-03-19T11:45:18.858Z,15.08728
2023-03-19T11:46:28.605Z,15.067139
2023-03-19T11:47:39.321Z,15.08728
2023-03-19T11:48:48.021Z,15.097351
2023-03-19T11:49:57.692Z,15.218201
2023-03-19T11:51:06.401Z,15.389404
2023-03-19T11:52:16.066Z,15.429688
2023-03-19T11:53:25.804Z,15.399475
2023-03-19T11:54:35.463Z,15.419617
2023-03-19T11:55:45.211Z,15.550537
2023-03-19T11:56:54.893Z,15.651245
2023-03-19T11:58:04.564Z,15.751953
2023-03-19T11:59:13.236Z,15.792236
2023-03-19T12:00:22.968Z,15.772095
2023-03-19T12:01:32.623Z,15.772095
2023-03-19T12:02:41.283Z,15.772095
2023-03-19T12:03:51.004Z,15.923157
2023-03-19T12:05:00.621Z,15.822449
2023-03-19T12:06:09.318Z,15.862732
2023-03-19T12:07:19.008Z,16.003723
2023-03-19T12:08:27.702Z,16.124573
2023-03-19T12:09:35.377Z,16.225281
2023-03-19T12:10:45.056Z,16.305847
2023-03-19T12:11:52.738Z,16.305847
2023-03-19T12:13:01.443Z,16.356201
2023-03-19T12:14:11.111Z,16.456909
2023-03-19T12:15:18.824Z,16.497192
2023-03-19T12:16:28.570Z,16.537476
2023-03-19T12:17:39.212Z,16.577759
2023-03-19T12:18:48.883Z,16.567688
2023-03-19T12:19:58.598Z,16.658325
2023-03-19T12:21:07.293Z,16.900024
2023-03-19T12:22:17.040Z,17.051086
2023-03-19T12:23:27.684Z,17.081299
2023-03-19T12:24:36.426Z,17.010803
2023-03-19T12:25:46.111Z,16.869812
2023-03-19T12:26:54.807Z,16.779175
2023-03-19T12:28:03.493Z,17.051086
2023-03-19T12:29:13.160Z,17.484131
2023-03-19T12:30:22.833Z,17.85675
2023-03-19T12:31:31.588Z,17.715759
2023-03-19T12:32:41.225Z,17.826538
2023-03-19T12:33:48.938Z,18.078308
2023-03-19T12:34:58.594Z,18.521423
2023-03-19T12:36:08.356Z,18.994751
2023-03-19T12:37:18.000Z,19.478149
2023-03-19T12:38:27.686Z,19.891052
2023-03-19T12:39:37.390Z,19.619141
2023-03-19T12:40:46.119Z,19.266663
2023-03-19T12:41:55.764Z,19.437866
2023-03-19T12:43:04.442Z,19.951477
2023-03-19T12:44:14.133Z,20.646362
2023-03-19T12:45:23.827Z,20.958557
2023-03-19T12:46:31.500Z,21.300964
2023-03-19T12:47:40.161Z,21.99585
2023-03-19T12:48:48.883Z,22.036133
2023-03-19T12:49:57.559Z,22.388611
2023-03-19T12:51:07.258Z,23.13385
2023-03-19T12:52:16.961Z,23.284912
2023-03-19T12:53:26.664Z,23.274841
2023-03-19T12:54:36.342Z,23.083496
2023-03-19T12:55:46.035Z,22.438965
2023-03-19T12:56:55.733Z,22.318115
2023-03-19T12:58:05.398Z,22.408752
2023-03-19T12:59:14.071Z,22.449036
2023-03-19T13:00:23.771Z,22.620239
2023-03-19T13:01:32.536Z,22.88208
2023-03-19T13:02:42.164Z,23.335266
2023-03-19T13:03:51.829Z,23.033142
2023-03-19T13:05:01.597Z,23.234558
2023-03-19T13:06:11.212Z,22.438965
2023-03-19T13:07:20.885Z,21.75415
2023-03-19T13:08:30.539Z,21.180115
2023-03-19T13:09:40.219Z,20.596008
2023-03-19T13:10:49.944Z,20.344238
2023-03-19T13:12:00.622Z,20.001831
2023-03-19T13:13:10.279Z,19.558716
2023-03-19T13:14:18.986Z,19.296875
2023-03-19T13:15:28.653Z,18.954468
2023-03-19T13:16:37.387Z,18.712769
2023-03-19T13:17:46.013Z,18.400574
2023-03-19T13:18:55.693Z,18.249512
2023-03-19T13:20:04.417Z,18.078308
2023-03-19T13:21:13.047Z,18.09845
2023-03-19T13:22:21.741Z,18.158875
2023-03-19T13:23:29.400Z,18.189087
2023-03-19T13:24:39.058Z,17.9776